createdAt,value
2022-12-08T00:02:02.896Z,3.30
2022-12-08T00:04:51.442Z,5.00
2022-12-08T00:07:37.342Z,5.67
2022-12-08T00:10:25.114Z,5.43
2022-12-08T00:12:55.332Z,5.37
2022-12-08T00:15:23.595Z,2.90
2022-12-08T00:17:53.203Z,2.10
2022-12-08T00:20:21.389Z,3.23
2022-12-08T00:22:49.887Z,4.67
2022-12-08T00:25:18.862Z,7.23
2022-12-08T00:27:47.150Z,4.83
2022-12-08T00:30:15.497Z,5.37
2022-12-08T00:32:43.723Z,5.03
2022-12-08T00:35:13.370Z,4.80
2022-12-08T00:37:41.606Z,6.30
2022-12-08T00:40:11.231Z,4.83
2022-12-08T00:42:39.513Z,3.17
2022-12-08T00:45:08.923Z,1.83
2022-12-08T00:47:37.101Z,4.00
2022-12-08T00:50:06.816Z,6.17
2022-12-08T00:52:36.799Z,5.13
2022-12-08T00:55:06.253Z,6.53
2022-12-08T00:57:34.690Z,2.90
2022-12-08T01:00:03.258Z,5.53
2022-12-08T01:02:33.425Z,7.13
2022-12-08T01:05:01.679Z,7.33
2022-12-08T01:07:29.969Z,3.57
2022-12-08T01:09:59.677Z,3.83
2022-12-08T01:12:30.049Z,8.50
2022-12-08T01:15:02.249Z,2.87
2022-12-08T01:17:31.090Z,2.63
2022-12-08T01:19:59.250Z,3.13
2022-12-08T01:22:27.490Z,3.70
2022-12-08T01:24:55.675Z,5.67
2022-12-08T01:27:25.287Z,4.63
2022-12-08T01:29:53.516Z,4.90
2022-12-08T01:32:21.801Z,4.70
2022-12-08T01:34:50.071Z,5.20
2022-12-08T01:37:18.247Z,3.10
2022-12-08T01:39:46.460Z,4.20
2022-12-08T01:42:22.205Z,5.30
2022-12-08T01:45:02.628Z,1.90
2022-12-08T01:47:39.070Z,4.10
2022-12-08T01:50:10.489Z,3.13
2022-12-08T01:52:42.938Z,1.97
2022-12-08T01:55:18.434Z,3.60
2022-12-08T01:57:49.970Z,4.87
2022-12-08T02:00:23.018Z,2.07
2022-12-08T02:02:56.680Z,3.63
2022-12-08T02:05:28.932Z,1.47
2022-12-08T02:07:59.515Z,2.57
2022-12-08T02:10:32.179Z,2.77
2022-12-08T02:13:01.668Z,2.23
2022-12-08T02:15:38.664Z,2.53
2022-12-08T02:18:24.539Z,2.00
2022-12-08T02:20:59.523Z,2.40
2022-12-08T02:23:37.790Z,2.50
2022-12-08T02:26:44.234Z,1.97
2022-12-08T02:30:07.971Z,1.37
2022-12-08T02:33:30.015Z,2.57
2022-12-08T02:36:06.353Z,2.30
2022-12-08T02:38:50.002Z,3.03
2022-12-08T02:41:33.125Z,1.73
2022-12-08T02:44:08.962Z,2.53
2022-12-08T02:46:42.097Z,2.00
2022-12-08T02:49:11.034Z,2.30
2022-12-08T02:51:40.652Z,1.63
2022-12-08T02:54:09.073Z,2.17
2022-12-08T02:56:56.027Z,1.63
2022-12-08T02:59:41.432Z,1.70
2022-12-08T03:02:30.174Z,2.13
2022-12-08T03:05:07.894Z,2.00
2022-12-08T03:07:42.966Z,3.93
2022-12-08T03:10:14.906Z,3.87
2022-12-08T03:12:49.302Z,4.27
2022-12-08T03:15:21.673Z,2.50
2022-12-08T03:17:57.763Z,2.23
2022-12-08T03:20:29.368Z,2.47
2022-12-08T03:23:01.458Z,1.97
2022-12-08T03:25:33.293Z,1.93
2022-12-08T03:28:01.993Z,1.93
2022-12-08T03:30:33.731Z,2.23
2022-12-08T03:33:07.916Z,2.40
2022-12-08T03:35:39.043Z,2.50
2022-12-08T03:38:12.162Z,2.20
2022-12-08T03:40:41.068Z,2.53
2022-12-08T03:43:09.538Z,2.27
2022-12-08T03:45:37.767Z,1.40
2022-12-08T03:48:06.427Z,1.00
2022-12-08T03:50:34.606Z,3.00
2022-12-08T03:53:02.803Z,3.67
2022-12-08T03:55:32.356Z,4.07
2022-12-08T03:58:02.903Z,4.30
2022-12-08T04:00:31.331Z,1.80
2022-12-08T04:02:59.551Z,3.73
2022-12-08T04:05:27.837Z,1.50
2022-12-08T04:07:58.662Z,3.37
2022-12-08T04:10:26.993Z,5.47
2022-12-08T04:12:58.413Z,2.73
2022-12-08T04:15:26.631Z,3.07
2022-12-08T04:17:54.912Z,2.07
2022-12-08T04:20:23.226Z,3.03
2022-12-08T04:22:51.426Z,2.90
2022-12-08T04:25:19.801Z,3.27
2022-12-08T04:27:48.144Z,2.13
2022-12-08T04:30:17.913Z,3.97
2022-12-08T04:32:47.705Z,3.00
2022-12-08T04:35:16.031Z,2.13
2022-12-08T04:37:44.388Z,2.60
2022-12-08T04:40:14.885Z,2.27
2022-12-08T04:42:44.271Z,1.57
2022-12-08T04:45:12.769Z,3.13
2022-12-08T04:47:42.635Z,3.50
2022-12-08T04:50:11.652Z,2.53
2022-12-08T04:52:39.907Z,1.17
2022-12-08T04:55:09.107Z,2.73
2022-12-08T04:57:37.354Z,2.73
2022-12-08T05:00:07.543Z,4.23
2022-12-08T05:02:36.356Z,0.90
2022-12-08T05:05:07.072Z,1.67
2022-12-08T05:07:35.360Z,2.40
2022-12-08T05:10:04.317Z,2.30
2022-12-08T05:12:32.734Z,2.43
2022-12-08T05:15:00.973Z,1.13
2022-12-08T05:17:29.272Z,1.10
2022-12-08T05:19:57.503Z,1.67
2022-12-08T05:22:27.371Z,2.40
2022-12-08T05:24:55.548Z,2.70
2022-12-08T05:27:24.031Z,3.57
2022-12-08T05:29:52.272Z,1.97
2022-12-08T05:32:20.524Z,2.60
2022-12-08T05:34:48.748Z,1.67
2022-12-08T05:37:17.034Z,1.70
2022-12-08T05:39:46.571Z,1.50
2022-12-08T05:42:15.159Z,2.47
2022-12-08T05:44:43.441Z,1.53
2022-12-08T05:47:11.663Z,2.37
2022-12-08T05:49:40.878Z,2.50
2022-12-08T05:52:09.133Z,1.33
2022-12-08T05:54:38.104Z,2.67
2022-12-08T05:57:07.859Z,2.03
2022-12-08T05:59:37.101Z,2.97
2022-12-08T06:02:05.382Z,3.33
2022-12-08T06:04:33.708Z,1.17
2022-12-08T06:07:01.925Z,2.47
2022-12-08T06:09:30.121Z,1.63
2022-12-08T06:11:58.312Z,3.83
2022-12-08T06:14:28.020Z,1.00
2022-12-08T06:16:56.289Z,2.80
2022-12-08T06:19:24.582Z,1.97
2022-12-08T06:21:52.755Z,2.33
2022-12-08T06:24:20.928Z,1.77
2022-12-08T06:26:49.124Z,2.23
2022-12-08T06:29:17.621Z,1.77
2022-12-08T06:31:47.248Z,1.23
2022-12-08T06:34:15.520Z,2.50
2022-12-08T06:36:43.769Z,1.93
2022-12-08T06:39:12.338Z,2.57
2022-12-08T06:41:54.424Z,1.23
2022-12-08T06:44:22.731Z,1.70
2022-12-08T06:46:52.337Z,2.73
2022-12-08T06:49:20.672Z,1.37
2022-12-08T06:51:48.859Z,3.67
2022-12-08T06:54:17.036Z,4.47
2022-12-08T06:56:45.286Z,3.50
2022-12-08T06:59:13.511Z,3.50
2022-12-08T07:01:42.123Z,1.70
2022-12-08T07:04:11.769Z,3.13
2022-12-08T07:06:40.219Z,1.90
2022-12-08T07:09:08.446Z,3.47
2022-12-08T07:11:36.765Z,2.73
2022-12-08T07:14:06.736Z,2.93
2022-12-08T07:16:34.992Z,1.33
2022-12-08T07:19:03.302Z,3.87
2022-12-08T07:21:32.925Z,2.97
2022-12-08T07:24:01.587Z,3.20
2022-12-08T07:26:29.802Z,2.47
2022-12-08T07:28:58.018Z,8.30
2022-12-08T07:31:28.483Z,3.63
2022-12-08T07:33:57.461Z,2.10
2022-12-08T07:36:26.699Z,3.30
2022-12-08T07:38:56.776Z,1.30
2022-12-08T07:41:27.148Z,2.77
2022-12-08T07:43:55.509Z,2.43
2022-12-08T07:46:26.130Z,3.70
2022-12-08T07:48:54.845Z,3.37
2022-12-08T07:51:23.082Z,1.70
2022-12-08T07:53:54.608Z,2.47
2022-12-08T07:56:24.593Z,4.20
2022-12-08T07:58:53.787Z,2.93
2022-12-08T08:01:25.447Z,3.27
2022-12-08T08:03:54.867Z,4.30
2022-12-08T08:06:23.178Z,3.03
2022-12-08T08:08:51.458Z,4.97
2022-12-08T08:11:21.579Z,5.27
2022-12-08T08:13:52.171Z,3.80
2022-12-08T08:16:21.612Z,4.53
2022-12-08T08:18:51.769Z,4.70
2022-12-08T08:21:45.003Z,7.50
2022-12-08T08:24:10.578Z,5.00
2022-12-08T08:26:39.096Z,6.47
2022-12-08T08:29:08.739Z,4.80
2022-12-08T08:31:37.037Z,6.17
2022-12-08T08:34:06.535Z,4.37
2022-12-08T08:36:34.886Z,7.40
2022-12-08T08:39:03.246Z,6.23
2022-12-08T08:41:31.504Z,6.17
2022-12-08T08:43:59.697Z,9.27
2022-12-08T08:46:29.543Z,6.40
2022-12-08T08:48:58.207Z,9.40
2022-12-08T08:51:26.457Z,6.23
2022-12-08T08:53:54.665Z,9.33
2022-12-08T08:56:23.075Z,6.00
2022-12-08T08:58:52.705Z,6.10
2022-12-08T09:01:25.078Z,8.17
2022-12-08T09:03:56.043Z,6.70
2022-12-08T09:06:25.439Z,9.60
2022-12-08T09:08:53.742Z,5.37
2022-12-08T09:11:23.415Z,6.30
2022-12-08T09:13:52.797Z,7.73
2022-12-08T09:16:22.053Z,7.90
2022-12-08T09:18:50.422Z,11.03
2022-12-08T09:21:23.333Z,8.10
2022-12-08T09:23:52.438Z,5.53
2022-12-08T09:26:22.416Z,5.80
2022-12-08T09:28:51.650Z,5.90
2022-12-08T09:31:21.806Z,9.63
2022-12-08T09:33:52.548Z,8.00
2022-12-08T09:36:23.449Z,5.53
2022-12-08T09:38:53.784Z,6.90
2022-12-08T09:41:38.819Z,7.50
2022-12-08T09:44:42.115Z,5.07
2022-12-08T09:47:20.620Z,5.43
2022-12-08T09:49:57.553Z,6.93
2022-12-08T09:52:31.569Z,3.83
2022-12-08T09:55:05.334Z,6.77
2022-12-08T09:57:33.582Z,6.63
2022-12-08T10:00:06.999Z,8.63
2022-12-08T10:02:35.731Z,4.73
2022-12-08T10:05:04.109Z,5.27
2022-12-08T10:07:45.022Z,5.13
2022-12-08T10:10:28.940Z,5.77
2022-12-08T10:13:06.221Z,6.00
2022-12-08T10:15:48.485Z,7.17
2022-12-08T10:18:20.547Z,7.73
2022-12-08T10:20:51.826Z,6.37
2022-12-08T10:23:31.363Z,6.77
2022-12-08T10:26:04.233Z,3.30
2022-12-08T10:28:38.796Z,6.07
2022-12-08T10:31:18.495Z,7.10
2022-12-08T10:33:50.573Z,5.40
2022-12-08T10:36:18.827Z,6.13
2022-12-08T10:38:48.386Z,9.32
2022-12-08T10:41:18.624Z,10.60
2022-12-08T10:43:50.546Z,5.47
2022-12-08T10:46:21.742Z,213.20
2022-12-08T10:48:55.731Z,7.03
2022-12-08T10:51:28.328Z,6.87
2022-12-08T10:53:59.875Z,4.23
2022-12-08T10:56:30.708Z,6.80
2022-12-08T10:59:15.773Z,6.77
2022-12-08T11:01:48.164Z,5.13
2022-12-08T11:04:20.420Z,6.67
2022-12-08T11:06:50.710Z,4.20
2022-12-08T11:09:50.774Z,4.03
2022-12-08T11:12:21.077Z,6.87
2022-12-08T11:14:52.352Z,5.57
2022-12-08T11:17:29.429Z,5.10
2022-12-08T11:20:01.600Z,8.53
2022-12-08T11:22:33.592Z,3.77
2022-12-08T11:25:11.560Z,6.33
2022-12-08T11:27:43.571Z,9.27
2022-12-08T11:30:18.335Z,6.40
2022-12-08T11:32:50.314Z,6.57
2022-12-08T11:35:26.760Z,11.17
2022-12-08T11:38:19.765Z,7.83
2022-12-08T11:40:53.553Z,4.63
2022-12-08T11:43:30.518Z,12.00
2022-12-08T11:46:02.014Z,3.97
2022-12-08T11:48:37.262Z,4.80
2022-12-08T11:51:10.644Z,4.87
2022-12-08T11:53:45.692Z,3.33
2022-12-08T11:56:21.806Z,2.77
2022-12-08T11:58:54.493Z,6.87
2022-12-08T12:01:25.141Z,2.47
2022-12-08T12:04:10.980Z,6.97
2022-12-08T12:07:11.091Z,4.17
2022-12-08T12:09:52.979Z,3.90
2022-12-08T12:12:40.067Z,4.77
2022-12-08T12:16:06.724Z,4.60
2022-12-08T12:18:45.163Z,2.63
2022-12-08T12:21:19.879Z,3.73
2022-12-08T12:23:54.113Z,5.37
2022-12-08T12:26:26.292Z,4.80
2022-12-08T12:29:01.360Z,6.23
2022-12-08T12:31:32.198Z,5.47
2022-12-08T12:34:09.651Z,5.13
2022-12-08T12:36:51.966Z,4.33
2022-12-08T12:39:25.411Z,4.47
2022-12-08T12:41:56.753Z,13.63
2022-12-08T12:44:43.247Z,4.13
2022-12-08T12:47:51.035Z,4.63
2022-12-08T12:50:44.497Z,3.23
2022-12-08T12:53:54.178Z,5.60
2022-12-08T12:56:52.551Z,4.43
2022-12-08T12:59:43.495Z,8.23
2022-12-08T13:02:25.104Z,5.13
2022-12-08T13:05:03.503Z,6.10
2022-12-08T13:07:35.111Z,6.23
2022-12-08T13:10:17.081Z,3.73
2022-12-08T13:12:46.870Z,5.20
2022-12-08T13:15:20.700Z,6.67
2022-12-08T13:17:50.437Z,4.77
2022-12-08T13:20:26.149Z,5.90
2022-12-08T13:23:24.527Z,4.60
2022-12-08T13:26:10.421Z,3.93
2022-12-08T13:29:19.346Z,3.87
2022-12-08T13:31:51.876Z,7.40
2022-12-08T13:34:30.364Z,5.93
2022-12-08T13:37:22.171Z,7.27
2022-12-08T13:39:56.174Z,3.90
2022-12-08T13:42:32.444Z,4.73
2022-12-08T13:45:48.680Z,4.23
2022-12-08T13:57:19.674Z,3.10
2022-12-08T13:59:44.477Z,3.87
2022-12-08T14:02:19.702Z,5.10
2022-12-08T14:07:37.950Z,6.77
2022-12-08T14:10:10.255Z,3.30
2022-12-08T14:12:39.008Z,2.87
2022-12-08T14:15:09.512Z,4.73
2022-12-08T14:17:40.767Z,3.37
2022-12-08T14:20:23.513Z,3.43
2022-12-08T14:22:54.726Z,3.47
2022-12-08T14:25:25.609Z,4.60
2022-12-08T14:28:01.125Z,3.97
2022-12-08T14:30:33.307Z,4.90
2022-12-08T14:33:03.541Z,4.50
2022-12-08T14:35:33.913Z,2.47
2022-12-08T14:38:05.280Z,4.00
2022-12-08T14:40:36.830Z,4.17
2022-12-08T14:43:17.516Z,5.50
2022-12-08T14:45:53.461Z,4.57
2022-12-08T14:48:25.350Z,4.63
2022-12-08T14:51:06.342Z,4.43
2022-12-08T14:53:40.618Z,6.33
2022-12-08T14:56:21.268Z,8.57
2022-12-08T14:58:52.917Z,4.10
2022-12-08T15:01:24.397Z,5.80
2022-12-08T15:03:54.704Z,2.97
2022-12-08T15:06:23.658Z,3.63
2022-12-08T15:08:56.210Z,3.53
2022-12-08T15:11:36.912Z,3.73
2022-12-08T15:14:05.522Z,4.77
2022-12-08T15:16:41.380Z,4.93
2022-12-08T15:19:23.242Z,2.73
2022-12-08T15:21:52.312Z,4.73
2022-12-08T15:24:27.747Z,5.70
2022-12-08T15:26:57.687Z,3.97
2022-12-08T15:29:28.787Z,5.17
2022-12-08T15:32:00.263Z,7.10
2022-12-08T15:34:28.935Z,5.67
2022-12-08T15:36:57.213Z,7.13
2022-12-08T15:39:38.053Z,7.73
2022-12-08T15:42:14.206Z,7.83
2022-12-08T15:44:43.361Z,8.20
2022-12-08T15:47:18.002Z,9.77
2022-12-08T15:49:47.128Z,8.73
2022-12-08T15:52:19.710Z,7.53
2022-12-08T15:54:49.006Z,8.20
2022-12-08T15:58:04.071Z,6.00
2022-12-08T16:00:51.763Z,6.50
2022-12-08T16:07:04.762Z,8.10
2022-12-08T16:09:12.767Z,9.53
2022-12-08T16:12:08.192Z,9.60
2022-12-08T16:17:31.843Z,7.03
2022-12-08T16:20:00.799Z,10.47
2022-12-08T16:25:22.157Z,8.37
2022-12-08T16:28:17.514Z,11.67
2022-12-08T16:30:45.597Z,10.37
2022-12-08T16:33:14.333Z,9.17
2022-12-08T16:35:43.457Z,10.30
2022-12-08T16:38:16.301Z,10.50
2022-12-08T16:41:04.141Z,8.87
2022-12-08T16:43:33.659Z,9.57
2022-12-08T16:46:04.347Z,14.87
2022-12-08T16:48:32.727Z,13.23
2022-12-08T16:51:01.470Z,10.87
2022-12-08T16:53:29.747Z,12.70
2022-12-08T16:55:58.030Z,14.83
2022-12-08T16:58:26.235Z,15.37
2022-12-08T17:00:54.906Z,14.03
2022-12-08T17:03:24.870Z,15.47
2022-12-08T17:05:53.384Z,11.87
2022-12-08T17:08:21.863Z,16.53
2022-12-08T17:11:07.162Z,13.77
2022-12-08T17:13:35.882Z,14.63
2022-12-08T17:16:04.603Z,15.13
2022-12-08T17:18:34.269Z,14.00
2022-12-08T17:21:02.521Z,16.77
2022-12-08T17:23:30.711Z,17.73
2022-12-08T17:26:00.285Z,22.67
2022-12-08T17:28:51.920Z,24.67
2022-12-08T17:31:17.867Z,341.87
2022-12-08T17:33:47.464Z,76.57
2022-12-08T17:36:18.095Z,68.70
2022-12-08T17:38:46.301Z,108.80
2022-12-08T17:41:14.499Z,96.67
2022-12-08T17:43:42.978Z,63.07
2022-12-08T17:46:11.355Z,48.73
2022-12-08T17:48:42.262Z,66.93
2022-12-08T17:51:12.128Z,43.73
2022-12-08T17:53:40.931Z,42.70
2022-12-08T17:56:18.936Z,27.77
2022-12-08T17:58:52.849Z,29.43
2022-12-08T18:01:23.827Z,32.10
2022-12-08T18:03:52.670Z,28.77
2022-12-08T18:06:24.626Z,44.13
2022-12-08T18:08:55.109Z,39.17
2022-12-08T18:11:24.492Z,35.27
2022-12-08T18:13:54.088Z,34.67
2022-12-08T18:16:26.015Z,34.13
2022-12-08T18:18:54.807Z,34.63
2022-12-08T18:21:24.309Z,32.47
2022-12-08T18:23:53.226Z,32.33
2022-12-08T18:26:22.024Z,35.47
2022-12-08T18:28:50.527Z,32.27
2022-12-08T18:31:22.614Z,33.43
2022-12-08T18:33:51.956Z,32.97
2022-12-08T18:36:27.431Z,35.80
2022-12-08T18:38:55.694Z,31.97
2022-12-08T18:41:26.763Z,36.67
2022-12-08T18:43:57.002Z,38.40
2022-12-08T18:46:26.372Z,37.63
2022-12-08T18:48:54.926Z,41.13
2022-12-08T18:51:25.673Z,39.77
2022-12-08T18:53:54.632Z,35.13
2022-12-08T18:56:26.170Z,38.17
2022-12-08T18:59:02.979Z,41.10
2022-12-08T19:01:32.428Z,38.80
2022-12-08T19:06:51.142Z,38.10
2022-12-08T19:09:20.556Z,38.87
2022-12-08T19:11:48.992Z,37.97
2022-12-08T19:14:19.213Z,39.07
2022-12-08T19:16:51.069Z,41.97
2022-12-08T19:19:19.489Z,40.73
2022-12-08T19:21:47.748Z,44.80
2022-12-08T19:24:17.416Z,38.73
2022-12-08T19:26:46.190Z,39.20
2022-12-08T19:29:14.612Z,37.93
2022-12-08T19:31:42.964Z,36.80
2022-12-08T19:34:13.193Z,43.93
2022-12-08T19:36:43.248Z,40.03
2022-12-08T19:39:35.034Z,43.73
2022-12-08T19:42:21.055Z,44.80
2022-12-08T19:44:55.085Z,41.77
2022-12-08T19:47:26.464Z,40.73
2022-12-08T19:50:16.183Z,42.80
2022-12-08T19:52:45.140Z,40.27
2022-12-08T19:55:14.992Z,47.90
2022-12-08T19:57:43.390Z,47.90
2022-12-08T20:00:14.145Z,43.43
2022-12-08T20:02:42.622Z,42.97
2022-12-08T20:05:15.859Z,74.47
2022-12-08T20:07:44.487Z,50.33
2022-12-08T20:10:21.892Z,45.43
2022-12-08T20:12:50.173Z,47.43
2022-12-08T20:15:18.437Z,51.70
2022-12-08T20:17:46.667Z,46.47
2022-12-08T20:20:15.384Z,48.87
2022-12-08T20:22:45.283Z,46.93
2022-12-08T20:25:15.427Z,48.77
2022-12-08T20:27:44.251Z,51.03
2022-12-08T20:30:17.093Z,49.80
2022-12-08T20:32:45.819Z,50.93
2022-12-08T20:35:14.162Z,47.90
2022-12-08T20:37:42.786Z,47.97
2022-12-08T20:40:11.856Z,47.33
2022-12-08T20:42:41.536Z,47.67
2022-12-08T20:45:10.705Z,48.03
2022-12-08T20:47:39.210Z,52.20
2022-12-08T20:50:09.837Z,55.03
2022-12-08T20:52:38.952Z,54.13
2022-12-08T20:55:09.398Z,53.40
2022-12-08T20:57:38.274Z,47.93
2022-12-08T21:00:10.499Z,54.70
2022-12-08T21:02:45.104Z,54.77
2022-12-08T21:05:16.392Z,49.23
2022-12-08T21:07:44.972Z,43.30
2022-12-08T21:10:13.353Z,38.93
2022-12-08T21:12:41.807Z,46.83
2022-12-08T21:15:13.356Z,43.10
2022-12-08T21:17:42.036Z,44.20
2022-12-08T21:20:11.564Z,45.93
2022-12-08T21:22:40.994Z,47.03
2022-12-08T21:25:10.497Z,53.03
2022-12-08T21:27:39.432Z,45.13
2022-12-08T21:30:10.833Z,48.37
2022-12-08T21:32:41.242Z,51.87
2022-12-08T21:35:10.918Z,47.63
2022-12-08T21:37:39.395Z,48.70
2022-12-08T21:40:09.700Z,49.97
2022-12-08T21:42:46.277Z,61.23
2022-12-08T21:45:17.230Z,59.40
2022-12-08T21:47:48.218Z,61.50
2022-12-08T21:50:22.545Z,63.83
2022-12-08T21:52:51.027Z,61.20
2022-12-08T21:55:20.357Z,68.13
2022-12-08T21:57:49.887Z,63.07
2022-12-08T22:00:20.255Z,64.10
2022-12-08T22:02:51.228Z,65.53
2022-12-08T22:05:19.688Z,63.03
2022-12-08T22:07:48.367Z,67.70
2022-12-08T22:10:20.100Z,62.90
2022-12-08T22:12:48.819Z,62.40
2022-12-08T22:15:17.364Z,59.10
2022-12-08T22:17:45.670Z,66.33
2022-12-08T22:20:17.632Z,69.33
2022-12-08T22:22:46.860Z,72.70
2022-12-08T22:25:15.102Z,64.70
2022-12-08T22:27:43.698Z,59.40
2022-12-08T22:30:13.441Z,58.73
2022-12-08T22:32:41.983Z,65.27
2022-12-08T22:35:11.708Z,71.30
2022-12-08T22:37:41.596Z,68.87
2022-12-08T22:40:12.092Z,62.33
2022-12-08T22:42:40.628Z,67.47
2022-12-08T22:45:11.542Z,64.63
2022-12-08T22:47:39.744Z,67.50
2022-12-08T22:50:09.013Z,67.67
2022-12-08T22:52:37.912Z,61.33
2022-12-08T22:55:09.548Z,63.03
2022-12-08T22:57:37.855Z,73.07
2022-12-08T23:00:11.509Z,58.83
2022-12-08T23:02:40.539Z,64.07
2022-12-08T23:05:10.458Z,54.97
2022-12-08T23:07:40.286Z,53.27
2022-12-08T23:10:12.042Z,57.20
2022-12-08T23:12:40.508Z,57.20
2022-12-08T23:15:10.078Z,60.20
2022-12-08T23:17:38.556Z,61.33
2022-12-08T23:20:09.267Z,63.03
2022-12-08T23:22:37.810Z,60.00
2022-12-08T23:25:06.946Z,55.97
2022-12-08T23:27:38.263Z,50.73
2022-12-08T23:30:10.108Z,50.93
2022-12-08T23:32:39.117Z,50.23
2022-12-08T23:35:09.489Z,49.70
2022-12-08T23:37:37.858Z,51.23
2022-12-08T23:40:08.773Z,48.03
2022-12-08T23:42:38.588Z,48.93
2022-12-08T23:45:08.490Z,48.00
2022-12-08T23:47:37.016Z,47.03
2022-12-08T23:50:07.866Z,49.87
2022-12-08T23:52:39.254Z,49.07
2022-12-08T23:55:11.116Z,50.23
2022-12-08T23:57:41.000Z,51.60
